sensor_id;sensor_type;location;lat;lon;timestamp;pressure;altitude;pressure_sealevel;temperature;humidity
75747;BME280;64363;52.198;21.020;2022-12-16T00:01:14;100316.66;;;-2.93;81.52
75747;BME280;64363;52.198;21.020;2022-12-16T00:03:41;100311.44;;;-2.93;82.19
75747;BME280;64363;52.198;21.020;2022-12-16T00:06:17;100311.53;;;-2.90;81.43
75747;BME280;64363;52.198;21.020;2022-12-16T00:08:58;100309.78;;;-2.91;81.91
75747;BME280;64363;52.198;21.020;2022-12-16T00:11:24;100307.09;;;-2.94;81.17
75747;BME280;64363;52.198;21.020;2022-12-16T00:13:50;100307.09;;;-2.94;81.56
75747;BME280;64363;52.198;21.020;2022-12-16T00:16:18;100307.94;;;-2.95;82.31
75747;BME280;64363;52.198;21.020;2022-12-16T00:18:44;100308.72;;;-2.99;81.83
75747;BME280;64363;52.198;21.020;2022-12-16T00:21:10;100309.56;;;-3.01;81.22
75747;BME280;64363;52.198;21.020;2022-12-16T00:23:37;100310.50;;;-2.96;81.80
75747;BME280;64363;52.198;21.020;2022-12-16T00:26:09;100305.34;;;-2.95;81.18
75747;BME280;64363;52.198;21.020;2022-12-16T00:28:36;100303.44;;;-3.02;80.39
75747;BME280;64363;52.198;21.020;2022-12-16T00:31:02;100312.84;;;-3.08;81.33
75747;BME280;64363;52.198;21.020;2022-12-16T00:33:29;100311.97;;;-3.10;80.87
75747;BME280;64363;52.198;21.020;2022-12-16T00:36:01;100317.06;;;-3.15;80.93
75747;BME280;64363;52.198;21.020;2022-12-16T00:38:27;100319.63;;;-3.16;81.53
75747;BME280;64363;52.198;21.020;2022-12-16T00:40:52;100314.47;;;-3.15;82.46
75747;BME280;64363;52.198;21.020;2022-12-16T00:43:18;100311.91;;;-3.13;81.68
75747;BME280;64363;52.198;21.020;2022-12-16T00:45:44;100303.97;;;-3.18;81.57
75747;BME280;64363;52.198;21.020;2022-12-16T00:48:10;100310.69;;;-3.29;81.61
75747;BME280;64363;52.198;21.020;2022-12-16T00:50:36;100318.50;;;-3.29;82.30
75747;BME280;64363;52.198;21.020;2022-12-16T00:53:02;100315.13;;;-3.25;83.03
75747;BME280;64363;52.198;21.020;2022-12-16T00:55:29;100307.28;;;-3.25;81.65
75747;BME280;64363;52.198;21.020;2022-12-16T00:57:54;100316.06;;;-3.21;82.93
75747;BME280;64363;52.198;21.020;2022-12-16T01:00:20;100314.28;;;-3.22;82.17
75747;BME280;64363;52.198;21.020;2022-12-16T01:02:47;100305.59;;;-3.23;82.66
75747;BME280;64363;52.198;21.020;2022-12-16T01:05:15;100300.31;;;-3.26;81.80
75747;BME280;64363;52.198;21.020;2022-12-16T01:07:48;100304.69;;;-3.23;82.04
75747;BME280;64363;52.198;21.020;2022-12-16T01:10:22;100297.66;;;-3.29;82.17
75747;BME280;64363;52.198;21.020;2022-12-16T01:12:48;100306.38;;;-3.27;82.90
75747;BME280;64363;52.198;21.020;2022-12-16T01:15:14;100297.66;;;-3.29;82.01
75747;BME280;64363;52.198;21.020;2022-12-16T01:17:40;100305.47;;;-3.27;82.42
75747;BME280;64363;52.198;21.020;2022-12-16T01:20:13;100302.91;;;-3.26;82.33
75747;BME280;64363;52.198;21.020;2022-12-16T01:22:39;100304.59;;;-3.28;82.16
75747;BME280;64363;52.198;21.020;2022-12-16T01:25:05;100307.25;;;-3.26;81.92
75747;BME280;64363;52.198;21.020;2022-12-16T01:27:31;100306.25;;;-3.32;81.72
75747;BME280;64363;52.198;21.020;2022-12-16T01:29:57;100304.63;;;-3.26;81.83
75747;BME280;64363;52.198;21.020;2022-12-16T01:32:22;100306.31;;;-3.28;82.19
75747;BME280;64363;52.198;21.020;2022-12-16T01:34:52;100302.91;;;-3.26;81.58
75747;BME280;64363;52.198;21.020;2022-12-16T01:37:25;100298.44;;;-3.32;81.25
75747;BME280;64363;52.198;21.020;2022-12-16T01:39:51;100302.69;;;-3.35;81.88
75747;BME280;64363;52.198;21.020;2022-12-16T01:42:19;100293.28;;;-3.30;81.75
75747;BME280;64363;52.198;21.020;2022-12-16T01:44:47;100287.13;;;-3.32;81.53
75747;BME280;64363;52.198;21.020;2022-12-16T01:47:40;100280.19;;;-3.32;81.57
75747;BME280;64363;52.198;21.020;2022-12-16T01:50:10;100267.97;;;-3.34;82.08
75747;BME280;64363;52.198;21.020;2022-12-16T01:52:48;100261.78;;;-3.39;81.38
75747;BME280;64363;52.198;21.020;2022-12-16T01:55:21;100269.59;;;-3.39;82.69
75747;BME280;64363;52.198;21.020;2022-12-16T01:57:53;100257.44;;;-3.39;82.66
75747;BME280;64363;52.198;21.020;2022-12-16T02:00:20;100266.16;;;-3.38;81.96
75747;BME280;64363;52.198;21.020;2022-12-16T02:02:46;100266.22;;;-3.35;82.12
75747;BME280;64363;52.198;21.020;2022-12-16T02:05:15;100252.19;;;-3.40;81.93
75747;BME280;64363;52.198;21.020;2022-12-16T02:16:14;100245.50;;;-3.29;82.20
75747;BME280;64363;52.198;21.020;2022-12-16T02:39:20;100248.91;;;-3.33;82.50
75747;BME280;64363;52.198;21.020;2022-12-16T02:42:04;100239.25;;;-3.36;82.19
75747;BME280;64363;52.198;21.020;2022-12-16T02:45:03;100245.38;;;-3.35;82.07
75747;BME280;64363;52.198;21.020;2022-12-16T02:47:31;100238.31;;;-3.39;81.99
75747;BME280;64363;52.198;21.020;2022-12-16T02:49:58;100240.94;;;-3.39;81.59
75747;BME280;64363;52.198;21.020;2022-12-16T02:52:26;100233.78;;;-3.48;82.25
75747;BME280;64363;52.198;21.020;2022-12-16T02:55:06;100227.78;;;-3.45;81.89
75747;BME280;64363;52.198;21.020;2022-12-16T03:00:09;100208.75;;;-3.41;82.55
75747;BME280;64363;52.198;21.020;2022-12-16T03:02:55;100201.91;;;-3.36;82.18
75747;BME280;64363;52.198;21.020;2022-12-16T03:05:34;100194.75;;;-3.45;82.49
75747;BME280;64363;52.198;21.020;2022-12-16T03:08:06;100180.00;;;-3.44;82.20
75747;BME280;64363;52.198;21.020;2022-12-16T03:10:44;100190.53;;;-3.41;82.26
75747;BME280;64363;52.198;21.020;2022-12-16T03:13:12;100187.91;;;-3.41;81.64
75747;BME280;64363;52.198;21.020;2022-12-16T03:15:40;100201.84;;;-3.39;82.15
75747;BME280;64363;52.198;21.020;2022-12-16T03:18:13;100207.00;;;-3.41;81.72
75747;BME280;64363;52.198;21.020;2022-12-16T03:20:56;100189.66;;;-3.40;82.23
75747;BME280;64363;52.198;21.020;2022-12-16T03:23:29;100186.19;;;-3.39;82.08
75747;BME280;64363;52.198;21.020;2022-12-16T03:26:01;100196.78;;;-3.33;82.16
75747;BME280;64363;52.198;21.020;2022-12-16T03:28:37;100187.13;;;-3.37;81.60
75747;BME280;64363;52.198;21.020;2022-12-16T03:31:36;100197.59;;;-3.34;82.27
75747;BME280;64363;52.198;21.020;2022-12-16T03:36:38;100193.19;;;-3.38;81.47
75747;BME280;64363;52.198;21.020;2022-12-16T03:39:07;100196.63;;;-3.39;82.35
75747;BME280;64363;52.198;21.020;2022-12-16T03:41:34;100184.41;;;-3.42;81.55
75747;BME280;64363;52.198;21.020;2022-12-16T03:44:00;100181.00;;;-3.39;83.01
75747;BME280;64363;52.198;21.020;2022-12-16T03:46:26;100173.31;;;-3.32;82.55
75747;BME280;64363;52.198;21.020;2022-12-16T03:48:52;100171.66;;;-3.29;81.86
75747;BME280;64363;52.198;21.020;2022-12-16T03:51:18;100155.06;;;-3.33;81.60
75747;BME280;64363;52.198;21.020;2022-12-16T03:53:44;100159.41;;;-3.32;81.85
75747;BME280;64363;52.198;21.020;2022-12-16T03:56:17;100148.16;;;-3.31;81.66
75747;BME280;64363;52.198;21.020;2022-12-16T03:58:42;100148.97;;;-3.32;81.67
75747;BME280;64363;52.198;21.020;2022-12-16T04:01:09;100154.28;;;-3.27;82.12
75747;BME280;64363;52.198;21.020;2022-12-16T04:03:36;100156.81;;;-3.32;81.76
75747;BME280;64363;52.198;21.020;2022-12-16T04:06:02;100153.31;;;-3.34;81.96
75747;BME280;64363;52.198;21.020;2022-12-16T04:08:34;100138.44;;;-3.38;81.30
75747;BME280;64363;52.198;21.020;2022-12-16T04:11:00;100139.34;;;-3.36;81.98
75747;BME280;64363;52.198;21.020;2022-12-16T04:13:44;100141.94;;;-3.36;81.72
75747;BME280;64363;52.198;21.020;2022-12-16T04:16:29;100137.47;;;-3.43;80.91
75747;BME280;64363;52.198;21.020;2022-12-16T04:19:22;100142.69;;;-3.43;81.55
75747;BME280;64363;52.198;21.020;2022-12-16T04:22:12;100135.00;;;-3.37;82.09
75747;BME280;64363;52.198;21.020;2022-12-16T04:25:02;100139.75;;;-3.58;81.04
75747;BME280;64363;52.198;21.020;2022-12-16T04:27:29;100146.66;;;-3.60;81.46
75747;BME280;64363;52.198;21.020;2022-12-16T04:29:54;100136.38;;;-3.54;82.50
75747;BME280;64363;52.198;21.020;2022-12-16T04:32:39;100138.97;;;-3.54;82.47
75747;BME280;64363;52.198;21.020;2022-12-16T04:35:23;100149.19;;;-3.63;82.76
75747;BME280;64363;52.198;21.020;2022-12-16T04:38:07;100150.25;;;-3.55;82.62
75747;BME280;64363;52.198;21.020;2022-12-16T04:40:51;100145.91;;;-3.55;81.97
75747;BME280;64363;52.198;21.020;2022-12-16T04:43:36;100149.50;;;-3.48;82.39
75747;BME280;64363;52.198;21.020;2022-12-16T04:46:20;100139.09;;;-3.48;82.00
75747;BME280;64363;52.198;21.020;2022-12-16T04:49:04;100130.63;;;-3.38;82.03
75747;BME280;64363;52.198;21.020;2022-12-16T04:51:48;100129.78;;;-3.37;82.75
75747;BME280;64363;52.198;21.020;2022-12-16T04:54:32;100127.09;;;-3.40;81.02
75747;BME280;64363;52.198;21.020;2022-12-16T04:57:23;100124.34;;;-3.48;82.91
75747;BME280;64363;52.198;21.020;2022-12-16T05:00:27;100124.13;;;-3.58;82.62
75747;BME280;64363;52.198;21.020;2022-12-16T05:03:11;100121.28;;;-3.70;81.61
75747;BME280;64363;52.198;21.020;2022-12-16T05:05:56;100129.97;;;-3.70;81.88
75747;BME280;64363;52.198;21.020;2022-12-16T05:08:40;100131.91;;;-3.61;82.47
75747;BME280;64363;52.198;21.020;2022-12-16T05:11:31;100126.00;;;-3.51;82.69
75747;BME280;64363;52.198;21.020;2022-12-16T05:14:15;100126.84;;;-3.52;81.79
75747;BME280;64363;52.198;21.020;2022-12-16T05:17:00;100122.50;;;-3.53;81.46
75747;BME280;64363;52.198;21.020;2022-12-16T05:19:44;100113.13;;;-3.45;81.53
75747;BME280;64363;52.198;21.020;2022-12-16T05:22:34;100113.72;;;-3.57;81.57
75747;BME280;64363;52.198;21.020;2022-12-16T05:25:26;100106.69;;;-3.61;81.18
75747;BME280;64363;52.198;21.020;2022-12-16T05:28:11;100118.88;;;-3.61;81.89
75747;BME280;64363;52.198;21.020;2022-12-16T05:30:55;100110.38;;;-3.51;83.13
75747;BME280;64363;52.198;21.020;2022-12-16T05:33:40;100129.69;;;-3.40;82.12
75747;BME280;64363;52.198;21.020;2022-12-16T05:36:24;100119.50;;;-3.29;82.21
75747;BME280;64363;52.198;21.020;2022-12-16T05:39:08;100117.78;;;-3.27;81.36
75747;BME280;64363;52.198;21.020;2022-12-16T05:41:53;100133.56;;;-3.21;82.00
75747;BME280;64363;52.198;21.020;2022-12-16T05:44:38;100138.75;;;-3.23;81.05
75747;BME280;64363;52.198;21.020;2022-12-16T05:47:22;100139.44;;;-3.32;80.68
75747;BME280;64363;52.198;21.020;2022-12-16T05:50:07;100134.22;;;-3.32;81.64
75747;BME280;64363;52.198;21.020;2022-12-16T05:52:53;100141.09;;;-3.35;81.15
75747;BME280;64363;52.198;21.020;2022-12-16T05:55:38;100143.66;;;-3.38;81.31
75747;BME280;64363;52.198;21.020;2022-12-16T05:58:22;100144.69;;;-3.28;81.80
75747;BME280;64363;52.198;21.020;2022-12-16T06:01:07;100143.88;;;-3.27;81.33
75747;BME280;64363;52.198;21.020;2022-12-16T06:03:51;100137.63;;;-3.36;81.63
75747;BME280;64363;52.198;21.020;2022-12-16T06:06:42;100132.63;;;-3.25;81.42
75747;BME280;64363;52.198;21.020;2022-12-16T06:09:39;100144.84;;;-3.21;81.26
75747;BME280;64363;52.198;21.020;2022-12-16T06:12:23;100156.69;;;-3.37;80.49
75747;BME280;64363;52.198;21.020;2022-12-16T06:15:08;100151.50;;;-3.37;80.89
75747;BME280;64363;52.198;21.020;2022-12-16T06:17:59;100148.88;;;-3.37;82.25
75747;BME280;64363;52.198;21.020;2022-12-16T06:20:43;100150.59;;;-3.39;81.27
75747;BME280;64363;52.198;21.020;2022-12-16T06:23:28;100151.69;;;-3.27;82.34
75747;BME280;64363;52.198;21.020;2022-12-16T06:26:18;100141.31;;;-3.26;81.10
75747;BME280;64363;52.198;21.020;2022-12-16T06:29:02;100145.72;;;-3.22;80.90
75747;BME280;64363;52.198;21.020;2022-12-16T06:31:46;100144.94;;;-3.18;81.29
75747;BME280;64363;52.198;21.020;2022-12-16T06:34:30;100146.56;;;-3.23;81.19
75747;BME280;64363;52.198;21.020;2022-12-16T06:37:15;100147.56;;;-3.16;82.06
75747;BME280;64363;52.198;21.020;2022-12-16T06:39:59;100139.91;;;-3.07;80.74
75747;BME280;64363;52.198;21.020;2022-12-16T06:42:49;100140.75;;;-3.08;80.66
75747;BME280;64363;52.198;21.020;2022-12-16T06:45:33;100131.81;;;-3.22;80.16
75747;BME280;64363;52.198;21.020;2022-12-16T06:48:18;100134.50;;;-3.18;80.22
75747;BME280;64363;52.198;21.020;2022-12-16T06:51:02;100129.28;;;-3.18;80.15
75747;BME280;64363;52.198;21.020;2022-12-16T06:53:47;100124.00;;;-3.21;81.30
75747;BME280;64363;52.198;21.020;2022-12-16T06:56:32;100126.53;;;-3.25;81.00
75747;BME280;64363;52.198;21.020;2022-12-16T06:59:16;100125.47;;;-3.35;80.39
75747;BME280;64363;52.198;21.020;2022-12-16T07:02:00;100135.66;;;-3.47;81.00
75747;BME280;64363;52.198;21.020;2022-12-16T07:04:44;100151.22;;;-3.50;81.35
75747;BME280;64363;52.198;21.020;2022-12-16T07:07:36;100159.16;;;-3.46;81.62
75747;BME280;64363;52.198;21.020;2022-12-16T07:10:33;100160.81;;;-3.49;80.44
75747;BME280;64363;52.198;21.020;2022-12-16T07:13:18;100146.03;;;-3.49;81.21
75747;BME280;64363;52.198;21.020;2022-12-16T07:16:02;100144.44;;;-3.42;81.72
75747;BME280;64363;52.198;21.020;2022-12-16T07:18:53;100148.84;;;-3.40;82.14
75747;BME280;64363;52.198;21.020;2022-12-16T07:21:38;100142.09;;;-3.30;82.31
75747;BME280;64363;52.198;21.020;2022-12-16T07:24:22;100157.66;;;-3.33;81.82
75747;BME280;64363;52.198;21.020;2022-12-16T07:27:06;100159.25;;;-3.40;81.48
75747;BME280;64363;52.198;21.020;2022-12-16T07:29:50;100162.78;;;-3.38;82.93
75747;BME280;64363;52.198;21.020;2022-12-16T07:32:34;100150.63;;;-3.37;83.18
75747;BME280;64363;52.198;21.020;2022-12-16T07:35:19;100163.97;;;-3.22;84.13
75747;BME280;64363;52.198;21.020;2022-12-16T07:38:03;100167.38;;;-3.26;83.45
75747;BME280;64363;52.198;21.020;2022-12-16T07:40:47;100157.94;;;-3.19;83.84
75747;BME280;64363;52.198;21.020;2022-12-16T07:43:32;100149.72;;;-3.39;83.46
75747;BME280;64363;52.198;21.020;2022-12-16T07:46:17;100152.22;;;-3.44;83.76
75747;BME280;64363;52.198;21.020;2022-12-16T07:49:01;100160.97;;;-3.42;84.42
75747;BME280;64363;52.198;21.020;2022-12-16T07:51:52;100149.03;;;-3.31;84.18
75747;BME280;64363;52.198;21.020;2022-12-16T07:54:36;100150.75;;;-3.31;84.83
75747;BME280;64363;52.198;21.020;2022-12-16T07:57:21;100145.72;;;-3.20;84.95
75747;BME280;64363;52.198;21.020;2022-12-16T08:00:05;100142.09;;;-3.30;83.81
75747;BME280;64363;52.198;21.020;2022-12-16T08:02:52;100139.47;;;-3.30;83.53
75747;BME280;64363;52.198;21.020;2022-12-16T08:05:37;100135.16;;;-3.29;83.39
75747;BME280;64363;52.198;21.020;2022-12-16T08:08:28;100135.19;;;-3.26;83.39
75747;BME280;64363;52.198;21.020;2022-12-16T08:11:26;100119.56;;;-3.26;83.97
75747;BME280;64363;52.198;21.020;2022-12-16T08:14:10;100125.75;;;-3.20;83.71
75747;BME280;64363;52.198;21.020;2022-12-16T08:16:54;100132.84;;;-3.13;83.51
75747;BME280;64363;52.198;21.020;2022-12-16T08:19:39;100129.31;;;-3.16;84.74
75747;BME280;64363;52.198;21.020;2022-12-16T08:22:22;100129.44;;;-3.09;85.23
75747;BME280;64363;52.198;21.020;2022-12-16T08:25:18;100125.75;;;-3.21;84.46
75747;BME280;64363;52.198;21.020;2022-12-16T08:28:02;100122.38;;;-3.16;84.87
75747;BME280;64363;52.198;21.020;2022-12-16T08:30:50;100124.13;;;-3.15;85.50
75747;BME280;64363;52.198;21.020;2022-12-16T08:33:34;100124.00;;;-3.21;84.23
75747;BME280;64363;52.198;21.020;2022-12-16T08:36:18;100112.63;;;-3.26;85.48
75747;BME280;64363;52.198;21.020;2022-12-16T08:39:03;100118.69;;;-3.27;85.89
75747;BME280;64363;52.198;21.020;2022-12-16T08:41:47;100118.88;;;-3.18;87.23
75747;BME280;64363;52.198;21.020;2022-12-16T08:44:32;100111.06;;;-3.16;87.73
75747;BME280;64363;52.198;21.020;2022-12-16T08:47:16;100122.38;;;-3.16;86.21
75747;BME280;64363;52.198;21.020;2022-12-16T08:50:00;100130.94;;;-3.23;87.45
75747;BME280;64363;52.198;21.020;2022-12-16T08:52:45;100125.72;;;-3.23;87.92
75747;BME280;64363;52.198;21.020;2022-12-16T08:55:29;100128.22;;;-3.27;87.38
75747;BME280;64363;52.198;21.020;2022-12-16T08:58:13;100130.94;;;-3.23;86.81
75747;BME280;64363;52.198;21.020;2022-12-16T09:00:57;100118.88;;;-3.18;86.92
75747;BME280;64363;52.198;21.020;2022-12-16T09:03:42;100106.84;;;-3.08;86.87
75747;BME280;64363;52.198;21.020;2022-12-16T09:06:27;100104.34;;;-3.05;86.59
75747;BME280;64363;52.198;21.020;2022-12-16T09:09:17;100092.22;;;-3.00;85.82
75747;BME280;64363;52.198;21.020;2022-12-16T09:12:01;100078.38;;;-2.98;86.57
75747;BME280;64363;52.198;21.020;2022-12-16T09:14:46;100078.41;;;-2.96;86.68
75747;BME280;64363;52.198;21.020;2022-12-16T09:17:36;100070.78;;;-2.84;86.35
75747;BME280;64363;52.198;21.020;2022-12-16T09:20:21;100069.09;;;-2.80;87.04
75747;BME280;64363;52.198;21.020;2022-12-16T09:23:05;100055.25;;;-2.76;87.80
75747;BME280;64363;52.198;21.020;2022-12-16T09:25:49;100053.53;;;-2.76;86.92
75747;BME280;64363;52.198;21.020;2022-12-16T09:28:33;100041.22;;;-2.85;85.28
75747;BME280;64363;52.198;21.020;2022-12-16T09:31:18;100038.78;;;-2.74;86.70
75747;BME280;64363;52.198;21.020;2022-12-16T09:34:03;100046.50;;;-2.80;85.80
75747;BME280;64363;52.198;21.020;2022-12-16T09:36:47;100045.69;;;-2.77;86.20
75747;BME280;64363;52.198;21.020;2022-12-16T09:39:31;100042.16;;;-2.79;85.01
75747;BME280;64363;52.198;21.020;2022-12-16T09:45:58;100034.38;;;-2.78;87.63
75747;BME280;64363;52.198;21.020;2022-12-16T09:48:56;100028.44;;;-2.69;86.37
75747;BME280;64363;52.198;21.020;2022-12-16T09:51:46;100028.31;;;-2.77;86.23
75747;BME280;64363;52.198;21.020;2022-12-16T09:54:33;100012.94;;;-2.59;86.88
75747;BME280;64363;52.198;21.020;2022-12-16T09:57:20;100016.72;;;-2.39;86.98
75747;BME280;64363;52.198;21.020;2022-12-16T10:00:20;100016.63;;;-2.43;84.85
75747;BME280;64363;52.198;21.020;2022-12-16T10:03:53;100022.09;;;-2.26;85.60
75747;BME280;64363;52.198;21.020;2022-12-16T10:09:21;100026.69;;;-2.10;83.72
75747;BME280;64363;52.198;21.020;2022-12-16T10:21:14;100021.50;;;-2.07;84.31
75747;BME280;64363;52.198;21.020;2022-12-16T10:24:13;100024.16;;;-2.03;84.65
75747;BME280;64363;52.198;21.020;2022-12-16T10:27:14;100009.25;;;-2.13;84.79
75747;BME280;64363;52.198;21.020;2022-12-16T10:30:00;100013.53;;;-2.18;83.75
75747;BME280;64363;52.198;21.020;2022-12-16T10:32:50;100004.03;;;-2.13;84.72
75747;BME280;64363;52.198;21.020;2022-12-16T10:35:40;99991.88;;;-2.08;84.90
75747;BME280;64363;52.198;21.020;2022-12-16T10:38:35;99998.97;;;-2.01;84.58
75747;BME280;64363;52.198;21.020;2022-12-16T10:41:24;99993.59;;;-2.08;84.06
75747;BME280;64363;52.198;21.020;2022-12-16T10:44:34;99994.41;;;-2.15;84.19
75747;BME280;64363;52.198;21.020;2022-12-16T10:47:19;99989.94;;;-2.24;83.98
75747;BME280;64363;52.198;21.020;2022-12-16T10:50:04;99983.13;;;-2.13;85.18
75747;BME280;64363;52.198;21.020;2022-12-16T10:52:56;99990.09;;;-2.12;84.89
75747;BME280;64363;52.198;21.020;2022-12-16T10:59:02;99984.94;;;-2.07;84.61
75747;BME280;64363;52.198;21.020;2022-12-16T11:01:59;99977.91;;;-2.13;85.60
75747;BME280;64363;52.198;21.020;2022-12-16T11:04:45;99980.47;;;-2.16;84.58
75747;BME280;64363;52.198;21.020;2022-12-16T11:07:51;99976.13;;;-2.17;85.78
75747;BME280;64363;52.198;21.020;2022-12-16T11:10:42;99973.59;;;-2.09;85.97
75747;BME280;64363;52.198;21.020;2022-12-16T11:13:35;99978.91;;;-2.02;85.84
75747;BME280;64363;52.198;21.020;2022-12-16T11:16:25;99972.03;;;-1.92;85.67
75747;BME280;64363;52.198;21.020;2022-12-16T11:19:22;99966.78;;;-1.95;84.66
75747;BME280;64363;52.198;21.020;2022-12-16T11:22:19;99972.06;;;-1.91;84.74
75747;BME280;64363;52.198;21.020;2022-12-16T11:28:15;99967.78;;;-1.84;85.12
75747;BME280;64363;52.198;21.020;2022-12-16T11:31:03;99963.53;;;-1.77;85.97
75747;BME280;64363;52.198;21.020;2022-12-16T11:33:50;99967.00;;;-1.75;84.61
75747;BME280;64363;52.198;21.020;2022-12-16T11:36:37;99955.59;;;-1.83;83.82
75747;BME280;64363;52.198;21.020;2022-12-16T11:39:23;99965.19;;;-1.82;84.86
75747;BME280;64363;52.198;21.020;2022-12-16T11:42:20;99953.84;;;-1.84;84.84
75747;BME280;64363;52.198;21.020;2022-12-16T11:45:06;99946.97;;;-1.76;84.47
75747;BME280;64363;52.198;21.020;2022-12-16T11:48:07;99941.81;;;-1.70;85.84
75747;BME280;64363;52.198;21.020;2022-12-16T11:50:56;99941.88;;;-1.64;84.78
75747;BME280;64363;52.198;21.020;2022-12-16T11:53:47;99937.50;;;-1.67;84.01
75747;BME280;64363;52.198;21.020;2022-12-16T11:56:43;99934.00;;;-1.67;83.78
75747;BME280;64363;52.198;21.020;2022-12-16T11:59:43;99940.03;;;-1.74;85.13
75747;BME280;64363;52.198;21.020;2022-12-16T12:02:44;99948.78;;;-1.71;84.84
75747;BME280;64363;52.198;21.020;2022-12-16T12:05:32;99948.84;;;-1.66;84.97
75747;BME280;64363;52.198;21.020;2022-12-16T12:08:38;99952.13;;;-1.82;84.01
75747;BME280;64363;52.198;21.020;2022-12-16T12:11:35;99953.72;;;-1.95;85.40
75747;BME280;64363;52.198;21.020;2022-12-16T12:23:06;99965.25;;;-1.78;86.18
75747;BME280;64363;52.198;21.020;2022-12-16T12:26:02;99956.72;;;-1.62;86.75
75747;BME280;64363;52.198;21.020;2022-12-16T12:31:56;99944.53;;;-1.61;85.50
75747;BME280;64363;52.198;21.020;2022-12-16T12:37:41;99940.31;;;-1.44;86.31
75747;BME280;64363;52.198;21.020;2022-12-16T12:43:45;99949.06;;;-1.42;85.23
75747;BME280;64363;52.198;21.020;2022-12-16T12:47:05;99960.41;;;-1.42;85.12
75747;BME280;64363;52.198;21.020;2022-12-16T12:58:40;99952.44;;;-1.57;85.78
75747;BME280;64363;52.198;21.020;2022-12-16T13:01:28;99957.66;;;-1.52;85.22
75747;BME280;64363;52.198;21.020;2022-12-16T13:04:18;99954.16;;;-1.57;85.20
75747;BME280;64363;52.198;21.020;2022-12-16T13:07:03;99950.63;;;-1.62;85.73
75747;BME280;64363;52.198;21.020;2022-12-16T13:10:24;99956.69;;;-1.65;85.63
75747;BME280;64363;52.198;21.020;2022-12-16T13:13:27;99947.03;;;-1.73;84.96
75747;BME280;64363;52.198;21.020;2022-12-16T13:22:29;99964.13;;;-2.00;88.61
75747;BME280;64363;52.198;21.020;2022-12-16T13:28:28;99950.88;;;-2.15;89.89
75747;BME280;64363;52.198;21.020;2022-12-16T13:31:15;99980.56;;;-2.08;89.32
75747;BME280;64363;52.198;21.020;2022-12-16T13:34:20;99969.13;;;-2.16;89.20
75747;BME280;64363;52.198;21.020;2022-12-16T13:37:19;99962.94;;;-2.24;89.76
75747;BME280;64363;52.198;21.020;2022-12-16T13:40:25;99969.91;;;-2.25;89.52
75747;BME280;64363;52.198;21.020;2022-12-16T13:46:52;99965.56;;;-2.26;89.25
75747;BME280;64363;52.198;21.020;2022-12-16T13:49:50;99970.75;;;-2.27;89.55
75747;BME280;64363;52.198;21.020;2022-12-16T13:55:43;99943.81;;;-2.25;89.38
75747;BME280;64363;52.198;21.020;2022-12-16T13:58:42;99963.72;;;-2.33;89.41
75747;BME280;64363;52.198;21.020;2022-12-16T14:01:37;99967.16;;;-2.37;90.15
75747;BME280;64363;52.198;21.020;2022-12-16T14:04:26;99977.50;;;-2.43;90.37
75747;BME280;64363;52.198;21.020;2022-12-16T14:07:39;99979.22;;;-2.45;89.85
75747;BME280;64363;52.198;21.020;2022-12-16T14:10:40;99982.56;;;-2.52;90.07
75747;BME280;64363;52.198;21.020;2022-12-16T14:13:26;99983.47;;;-2.50;90.03
75747;BME280;64363;52.198;21.020;2022-12-16T14:16:21;99996.50;;;-2.52;89.85
75747;BME280;64363;52.198;21.020;2022-12-16T14:24:43;100000.91;;;-2.48;90.03
75747;BME280;64363;52.198;21.020;2022-12-16T14:27:34;99994.78;;;-2.51;89.12
75747;BME280;64363;52.198;21.020;2022-12-16T14:30:23;99985.19;;;-2.54;89.41
75747;BME280;64363;52.198;21.020;2022-12-16T14:33:26;100003.41;;;-2.55;90.49
75747;BME280;64363;52.198;21.020;2022-12-16T14:36:26;100009.59;;;-2.50;90.57
75747;BME280;64363;52.198;21.020;2022-12-16T14:39:22;100010.56;;;-2.42;90.58
75747;BME280;64363;52.198;21.020;2022-12-16T14:42:20;100016.59;;;-2.45;90.42
75747;BME280;64363;52.198;21.020;2022-12-16T14:45:28;100017.56;;;-2.41;89.05
75747;BME280;64363;52.198;21.020;2022-12-16T14:48:14;100034.91;;;-2.43;89.47
75747;BME280;64363;52.198;21.020;2022-12-16T14:54:40;100039.25;;;-2.44;88.03
75747;BME280;64363;52.198;21.020;2022-12-16T14:57:27;100038.47;;;-2.38;89.07
75747;BME280;64363;52.198;21.020;2022-12-16T15:00:18;100039.44;;;-2.33;90.18
75747;BME280;64363;52.198;21.020;2022-12-16T15:06:06;100045.66;;;-2.22;88.98
75747;BME280;64363;52.198;21.020;2022-12-16T15:09:04;100047.28;;;-2.30;88.80
75747;BME280;64363;52.198;21.020;2022-12-16T15:12:02;100042.03;;;-2.33;87.52
75747;BME280;64363;52.198;21.020;2022-12-16T15:14:46;100042.00;;;-2.34;88.41
75747;BME280;64363;52.198;21.020;2022-12-16T15:17:52;100050.66;;;-2.39;88.07
75747;BME280;64363;52.198;21.020;2022-12-16T15:20:52;100046.22;;;-2.43;87.84
75747;BME280;64363;52.198;21.020;2022-12-16T15:23:44;100068.81;;;-2.45;87.85
75747;BME280;64363;52.198;21.020;2022-12-16T15:26:30;100066.97;;;-2.52;87.28
75747;BME280;64363;52.198;21.020;2022-12-16T15:29:32;100063.47;;;-2.52;88.10
75747;BME280;64363;52.198;21.020;2022-12-16T15:32:34;100060.88;;;-2.52;88.83
75747;BME280;64363;52.198;21.020;2022-12-16T15:35:26;100067.00;;;-2.49;88.09
75747;BME280;64363;52.198;21.020;2022-12-16T15:41:01;100074.00;;;-2.49;89.06
75747;BME280;64363;52.198;21.020;2022-12-16T15:43:46;100080.94;;;-2.50;88.18
75747;BME280;64363;52.198;21.020;2022-12-16T15:46:31;100083.50;;;-2.51;88.18
75747;BME280;64363;52.198;21.020;2022-12-16T15:49:22;100079.09;;;-2.55;88.46
75747;BME280;64363;52.198;21.020;2022-12-16T15:52:41;100068.66;;;-2.55;89.61
75747;BME280;64363;52.198;21.020;2022-12-16T15:55:38;100088.69;;;-2.54;89.43
75747;BME280;64363;52.198;21.020;2022-12-16T15:58:28;100092.09;;;-2.58;88.76
75747;BME280;64363;52.198;21.020;2022-12-16T16:01:18;100085.16;;;-2.56;88.34
75747;BME280;64363;52.198;21.020;2022-12-16T16:04:24;100085.91;;;-2.63;88.22